Time;durP1;ratioP1;P1;durP2;ratioP2;P2;SDS_P1;SDS_P2;PMS_P1;PMS_P2;Temp;Humidity;BMP_temperature;BMP_pressure;BME280_temperature;BME280_humidity;BME280_pressure;Samples;Min_cycle;Max_cycle;Signal;HPM_P1;HPM_P2
2021/05/28 02:46:23;;;;;;;16.50;15.60;;;13.10;99.90;;;;;;5490821;23;21013;-68
2021/05/28 02:48:49;;;;;;;14.17;13.50;;;13.10;99.90;;;;;;4951530;29;20471;-67
2021/05/28 02:51:16;;;;;;;15.43;14.63;;;13.00;99.90;;;;;;4949402;29;21009;-67
2021/05/28 02:53:42;;;;;;;15.50;14.80;;;13.10;99.90;;;;;;4949400;29;20460;-67
2021/05/28 02:56:08;;;;;;;14.50;13.67;;;12.90;99.90;;;;;;4951292;29;20448;-67
2021/05/28 02:58:35;;;;;;;15.70;15.00;;;12.80;99.90;;;;;;4951049;29;20451;-67
2021/05/28 03:01:01;;;;;;;17.50;16.40;;;12.80;99.90;;;;;;4951074;29;20998;-68
2021/05/28 03:03:28;;;;;;;29.53;27.00;;;12.70;99.90;;;;;;4950954;29;20456;-67
2021/05/28 03:05:55;;;;;;;27.03;24.50;;;12.70;99.90;;;;;;4950927;29;20449;-69
2021/05/28 03:08:21;;;;;;;19.17;17.90;;;12.70;99.90;;;;;;4950972;29;20934;-67
2021/05/28 03:10:47;;;;;;;18.87;17.77;;;12.60;99.90;;;;;;4951158;29;20445;-68
2021/05/28 03:13:14;;;;;;;17.97;16.90;;;12.50;99.90;;;;;;4951931;28;21920;-70
2021/05/28 03:15:41;;;;;;;18.07;17.07;;;12.50;99.90;;;;;;4954474;29;20444;-66
2021/05/28 03:18:13;;;;;;;18.77;17.67;;;12.50;99.90;;;;;;4954909;29;20826;-68
2021/05/28 03:20:41;;;;;;;15.60;14.63;;;12.50;99.90;;;;;;4954752;29;20475;-67
2021/05/28 03:23:08;;;;;;;17.40;16.40;;;12.40;99.90;;;;;;4954659;29;20455;-69
2021/05/28 03:25:34;;;;;;;17.00;16.00;;;12.30;99.90;;;;;;4954709;29;20464;-67
2021/05/28 03:28:00;;;;;;;16.37;15.40;;;12.30;99.90;;;;;;4952212;29;20448;-67
2021/05/28 03:30:26;;;;;;;15.40;14.70;;;12.30;99.90;;;;;;4954145;29;20989;-69
2021/05/28 03:32:53;;;;;;;15.30;14.60;;;12.30;99.90;;;;;;4954522;29;20480;-67
2021/05/28 03:35:19;;;;;;;15.27;14.57;;;12.40;99.90;;;;;;4954205;29;20531;-67
2021/05/28 03:37:46;;;;;;;14.60;13.80;;;12.30;99.90;;;;;;4954041;29;21348;-67
2021/05/28 03:40:13;;;;;;;17.13;15.67;;;12.30;99.90;;;;;;4954118;29;20456;-71
2021/05/28 03:42:39;;;;;;;15.07;14.27;;;12.30;99.90;;;;;;4954429;29;20493;-71
2021/05/28 03:45:08;;;;;;;15.03;14.20;;;12.30;99.90;;;;;;4955115;29;21036;-69
2021/05/28 03:47:34;;;;;;;14.60;13.90;;;12.30;99.90;;;;;;4954667;29;20538;-70
2021/05/28 03:50:01;;;;;;;14.33;13.70;;;12.20;99.90;;;;;;4955397;29;20531;-75
2021/05/28 03:52:27;;;;;;;13.93;13.03;;;12.20;99.90;;;;;;4954874;28;20488;-69
2021/05/28 03:54:54;;;;;;;15.20;14.47;;;12.30;99.90;;;;;;4955150;28;20822;-72
2021/05/28 03:57:20;;;;;;;15.50;14.50;;;12.20;99.90;;;;;;4953601;29;20453;-72
2021/05/28 03:59:48;;;;;;;16.80;15.40;;;12.30;99.90;;;;;;4953697;28;20474;-70
2021/05/28 04:02:14;;;;;;;16.10;15.10;;;12.40;99.90;;;;;;4953751;29;21251;-70
2021/05/28 04:04:42;;;;;;;14.93;14.13;;;12.40;99.90;;;;;;4953768;29;20847;-70
2021/05/28 04:07:08;;;;;;;16.33;15.40;;;12.40;99.90;;;;;;4953616;28;20989;-70
2021/05/28 04:09:35;;;;;;;16.20;15.37;;;12.30;99.90;;;;;;4953639;28;20448;-70
2021/05/28 04:12:02;;;;;;;15.57;14.77;;;12.50;99.90;;;;;;4953160;29;20528;-70
2021/05/28 04:14:28;;;;;;;15.37;14.67;;;12.40;99.90;;;;;;4952216;29;20803;-70
2021/05/28 04:16:54;;;;;;;15.20;14.40;;;12.40;99.90;;;;;;4952768;29;20448;-71
2021/05/28 04:19:21;;;;;;;16.50;15.60;;;12.50;99.90;;;;;;4953390;29;20459;-73
2021/05/28 04:21:47;;;;;;;15.97;15.07;;;12.40;99.90;;;;;;4953447;28;20503;-72
2021/05/28 04:24:13;;;;;;;16.30;15.20;;;12.30;99.90;;;;;;4953005;28;20871;-72
2021/05/28 04:26:39;;;;;;;15.27;14.33;;;12.20;99.90;;;;;;4953610;29;20456;-72
2021/05/28 04:29:06;;;;;;;15.93;14.93;;;12.20;99.90;;;;;;4953475;29;20455;-71
2021/05/28 04:31:32;;;;;;;16.53;15.33;;;12.20;99.90;;;;;;4952810;29;20495;-71
2021/05/28 04:33:59;;;;;;;14.53;13.53;;;12.20;99.90;;;;;;4953011;28;20452;-71
2021/05/28 04:36:25;;;;;;;14.60;13.90;;;12.60;99.90;;;;;;4953061;28;20468;-71
2021/05/28 04:38:51;;;;;;;15.80;14.53;;;12.80;99.90;;;;;;4953001;29;20437;-71
2021/05/28 04:41:17;;;;;;;16.33;15.27;;;13.10;99.90;;;;;;4952659;28;20445;-71
2021/05/28 04:43:43;;;;;;;15.80;14.90;;;13.30;99.90;;;;;;4952798;28;20824;-71
2021/05/28 04:46:10;;;;;;;17.57;16.20;;;13.40;99.90;;;;;;4952561;29;20489;-72
2021/05/28 04:48:36;;;;;;;15.20;14.20;;;13.50;99.90;;;;;;4950352;29;20445;-72
2021/05/28 04:51:03;;;;;;;19.53;18.33;;;13.40;99.90;;;;;;4952754;29;20453;-72
2021/05/28 04:53:29;;;;;;;15.20;14.30;;;13.40;99.90;;;;;;4952906;29;21364;-72
2021/05/28 04:55:55;;;;;;;15.50;14.60;;;13.50;99.90;;;;;;4950350;29;20491;-72
2021/05/28 04:58:21;;;;;;;14.47;13.57;;;13.50;99.90;;;;;;4953890;29;20456;-72
2021/05/28 05:00:49;;;;;;;14.63;13.83;;;13.50;99.90;;;;;;4953680;29;20819;-71
2021/05/28 05:03:16;;;;;;;15.20;14.10;;;13.40;99.90;;;;;;4953774;28;20453;-71
2021/05/28 05:05:42;;;;;;;14.97;13.97;;;13.40;99.90;;;;;;4953870;28;20459;-72
2021/05/28 05:08:08;;;;;;;15.30;14.40;;;13.50;99.90;;;;;;4954230;28;20815;-72
2021/05/28 05:10:34;;;;;;;17.10;15.60;;;13.60;99.90;;;;;;4953855;28;20464;-72
2021/05/28 05:13:01;;;;;;;15.90;14.90;;;13.70;99.90;;;;;;4953239;28;20503;-72
2021/05/28 05:15:28;;;;;;;15.93;14.83;;;13.70;99.90;;;;;;4953735;28;20456;-72
2021/05/28 05:17:54;;;;;;;16.67;15.63;;;13.70;99.90;;;;;;4953619;28;20467;-72
2021/05/28 05:20:21;;;;;;;15.17;14.27;;;13.60;99.90;;;;;;4953391;28;20994;-72
2021/05/28 05:22:47;;;;;;;15.70;14.50;;;13.60;99.90;;;;;;4953572;29;20814;-72
2021/05/28 05:25:14;;;;;;;16.83;15.90;;;13.50;99.90;;;;;;4953465;29;20456;-72
2021/05/28 05:27:40;;;;;;;15.97;15.07;;;13.70;99.90;;;;;;4953397;29;20457;-71
2021/05/28 05:30:07;;;;;;;16.13;15.13;;;14.00;99.90;;;;;;4953317;29;20452;-72
2021/05/28 05:32:34;;;;;;;15.70;14.40;;;14.20;99.90;;;;;;4953106;28;20857;-72
2021/05/28 05:35:00;;;;;;;16.90;15.63;;;14.40;99.90;;;;;;4953587;29;20463;-72
2021/05/28 05:37:27;;;;;;;16.97;15.90;;;14.60;99.90;;;;;;4952468;28;20453;-72
2021/05/28 05:39:53;;;;;;;16.20;14.90;;;14.80;99.90;;;;;;4953433;29;20459;-72
2021/05/28 05:42:19;;;;;;;18.00;16.30;;;14.90;99.90;;;;;;4952849;28;20826;-72
2021/05/28 05:44:45;;;;;;;16.23;15.33;;;14.90;99.90;;;;;;4953028;29;20484;-72
2021/05/28 05:47:12;;;;;;;18.47;16.47;;;14.80;99.90;;;;;;4952827;29;20539;-72
2021/05/28 05:49:38;;;;;;;15.97;15.03;;;14.80;99.90;;;;;;4952976;29;20488;-71
2021/05/28 05:52:05;;;;;;;16.90;15.60;;;14.60;99.90;;;;;;4952436;29;21001;-71
2021/05/28 05:54:32;;;;;;;17.23;16.00;;;14.40;99.90;;;;;;4952477;29;20457;-71
2021/05/28 05:56:58;;;;;;;15.57;14.57;;;14.40;99.90;;;;;;4952596;29;20463;-71
2021/05/28 05:59:28;;;;;;;17.17;15.90;;;14.50;99.90;;;;;;4952556;29;20460;-71
2021/05/28 06:01:54;;;;;;;18.30;17.20;;;14.60;99.90;;;;;;4952841;28;20551;-71
2021/05/28 06:04:20;;;;;;;17.10;15.70;;;14.70;99.90;;;;;;4952768;29;20452;-71
2021/05/28 06:06:46;;;;;;;17.80;16.70;;;14.60;99.90;;;;;;4952669;28;20455;-72
2021/05/28 06:09:13;;;;;;;16.73;15.63;;;14.60;99.90;;;;;;4952489;28;20954;-68
2021/05/28 06:11:40;;;;;;;17.90;16.90;;;14.70;99.90;;;;;;4952788;29;20816;-68
2021/05/28 06:14:06;;;;;;;17.03;15.97;;;14.80;99.90;;;;;;4952444;29;20537;-70
2021/05/28 06:16:33;;;;;;;17.37;15.87;;;15.00;99.90;;;;;;4952402;29;20463;-69
2021/05/28 06:18:59;;;;;;;17.63;16.50;;;15.30;99.90;;;;;;4952464;28;20471;-68
2021/05/28 06:21:25;;;;;;;16.77;15.77;;;15.40;99.90;;;;;;4952596;29;20833;-68
2021/05/28 06:23:51;;;;;;;17.63;16.23;;;15.70;99.90;;;;;;4952768;29;20457;-68
2021/05/28 06:26:17;;;;;;;17.23;15.83;;;15.90;99.90;;;;;;4952294;29;20461;-68
2021/05/28 06:28:44;;;;;;;17.40;16.33;;;16.00;99.90;;;;;;4952265;29;20496;-68
2021/05/28 06:31:11;;;;;;;16.70;15.63;;;16.00;99.90;;;;;;4951283;29;20453;-68
2021/05/28 06:33:38;;;;;;;16.83;15.73;;;16.50;99.90;;;;;;4950812;29;20868;-68
2021/05/28 06:36:05;;;;;;;17.30;16.40;;;16.60;99.90;;;;;;4951408;29;20448;-68
2021/05/28 06:38:31;;;;;;;17.40;16.40;;;16.90;99.90;;;;;;4951866;29;20449;-68
2021/05/28 06:40:57;;;;;;;17.27;16.33;;;17.30;99.90;;;;;;4950991;29;20457;-68
2021/05/28 06:43:23;;;;;;;17.30;16.20;;;17.00;99.90;;;;;;4951024;29;20499;-68
2021/05/28 06:45:50;;;;;;;18.17;16.80;;;16.70;99.90;;;;;;4950742;28;20484;-67
2021/05/28 06:48:17;;;;;;;17.27;15.83;;;16.90;99.90;;;;;;4954506;28;20511;-69
2021/05/28 06:50:44;;;;;;;16.13;15.33;;;17.00;99.90;;;;;;4955844;29;20479;-68
2021/05/28 06:53:11;;;;;;;18.00;16.70;;;17.30;99.90;;;;;;4956072;29;20591;-69
2021/05/28 06:55:37;;;;;;;18.80;17.57;;;17.60;99.90;;;;;;4956222;29;20532;-69
2021/05/28 06:58:04;;;;;;;17.60;16.30;;;17.30;99.90;;;;;;4955988;29;20499;-68
2021/05/28 07:00:30;;;;;;;16.93;15.93;;;17.10;99.90;;;;;;4955677;29;20864;-69
2021/05/28 07:02:57;;;;;;;17.97;16.67;;;17.30;99.90;;;;;;4955183;28;20480;-68
2021/05/28 07:05:24;;;;;;;17.80;16.70;;;17.20;99.90;;;;;;4961607;28;20460;-69
2021/05/28 07:07:51;;;;;;;18.60;17.30;;;17.30;99.90;;;;;;4966225;28;21004;-69
2021/05/28 07:10:18;;;;;;;17.13;16.13;;;17.60;99.90;;;;;;4964947;28;20789;-69
2021/05/28 07:12:44;;;;;;;16.97;15.87;;;17.60;99.90;;;;;;4955739;28;20495;-69
2021/05/28 07:15:11;;;;;;;15.40;14.50;;;17.60;99.90;;;;;;4955400;28;20460;-69
2021/05/28 07:17:38;;;;;;;17.87;16.67;;;17.80;99.90;;;;;;4955430;28;20906;-69
2021/05/28 07:20:06;;;;;;;17.37;16.47;;;18.40;99.90;;;;;;4955504;29;20487;-69
2021/05/28 07:22:33;;;;;;;16.60;15.60;;;18.90;99.90;;;;;;4955519;29;20452;-69
2021/05/28 07:24:59;;;;;;;16.90;16.00;;;19.20;99.30;;;;;;4955604;29;20557;-69
2021/05/28 07:27:26;;;;;;;18.30;17.00;;;19.20;98.80;;;;;;4955613;29;20507;-69
2021/05/28 07:29:54;;;;;;;16.47;15.57;;;18.70;99.50;;;;;;4955356;29;20474;-69
2021/05/28 07:32:20;;;;;;;17.57;16.47;;;18.40;99.90;;;;;;4954916;29;20521;-69
2021/05/28 07:34:46;;;;;;;17.60;16.50;;;18.40;99.90;;;;;;4955082;28;20487;-69
2021/05/28 07:37:13;;;;;;;17.77;16.40;;;18.80;99.60;;;;;;4955084;29;20457;-70
2021/05/28 07:39:40;;;;;;;17.90;16.67;;;18.90;98.90;;;;;;4955005;29;20464;-69
2021/05/28 07:42:07;;;;;;;18.57;17.47;;;19.10;98.70;;;;;;4954974;28;20440;-70
2021/05/28 07:44:33;;;;;;;17.50;16.60;;;19.30;98.60;;;;;;4955230;29;20472;-69
2021/05/28 07:46:59;;;;;;;17.93;16.73;;;19.40;98.30;;;;;;4954239;29;20846;-69
2021/05/28 07:49:26;;;;;;;17.97;16.53;;;20.60;96.90;;;;;;4954996;28;20453;-69
2021/05/28 07:51:53;;;;;;;17.57;16.10;;;20.10;96.10;;;;;;4954600;29;20483;-69
2021/05/28 07:54:20;;;;;;;17.30;16.30;;;19.70;96.90;;;;;;4955024;28;20460;-69
2021/05/28 07:56:46;;;;;;;17.17;16.27;;;19.90;95.90;;;;;;4954758;29;20459;-69
2021/05/28 07:59:13;;;;;;;16.30;15.43;;;20.20;95.20;;;;;;4954045;28;20453;-69
2021/05/28 08:01:39;;;;;;;15.87;14.90;;;20.50;95.30;;;;;;4947175;28;20478;-70
2021/05/28 08:04:06;;;;;;;20.17;15.63;;;21.10;94.40;;;;;;4935590;29;20940;-69
2021/05/28 08:06:32;;;;;;;16.80;15.40;;;21.00;94.00;;;;;;4935438;29;20465;-69
2021/05/28 08:08:58;;;;;;;16.37;15.30;;;20.80;93.20;;;;;;4935380;29;20453;-69
2021/05/28 08:11:25;;;;;;;16.77;15.80;;;20.00;94.40;;;;;;4935657;29;20457;-70
2021/05/28 08:13:51;;;;;;;14.43;13.67;;;20.00;94.60;;;;;;4942917;29;20472;-70
2021/05/28 08:16:18;;;;;;;14.13;13.23;;;19.70;94.40;;;;;;4954207;29;20453;-70
2021/05/28 08:18:44;;;;;;;13.60;13.00;;;20.10;92.90;;;;;;4954506;28;20467;-71
2021/05/28 08:21:11;;;;;;;15.70;14.50;;;19.70;93.60;;;;;;4954494;29;20460;-71
2021/05/28 08:23:38;;;;;;;14.50;13.70;;;19.90;94.20;;;;;;4954692;28;20448;-72
2021/05/28 08:26:04;;;;;;;14.97;14.27;;;20.10;93.90;;;;;;4954460;29;20452;-71
2021/05/28 08:28:34;;;;;;;15.00;14.10;;;20.20;93.60;;;;;;4952505;28;20453;-72
2021/05/28 08:31:00;;;;;;;14.80;13.93;;;20.20;93.00;;;;;;4953870;29;20461;-72
2021/05/28 08:33:26;;;;;;;15.00;14.30;;;20.10;93.60;;;;;;4953929;29;20484;-71
2021/05/28 08:35:52;;;;;;;16.60;15.57;;;20.20;93.30;;;;;;4954004;29;20456;-71
2021/05/28 08:38:19;;;;;;;15.50;14.40;;;19.50;94.80;;;;;;4953810;29;20460;-71
2021/05/28 08:40:45;;;;;;;15.83;15.03;;;19.60;95.40;;;;;;4953714;28;20943;-71
2021/05/28 08:43:11;;;;;;;14.80;14.10;;;19.80;94.90;;;;;;4953290;29;20448;-71
2021/05/28 08:45:40;;;;;;;15.73;14.83;;;19.40;96.00;;;;;;4953509;28;20499;-72
2021/05/28 08:48:08;;;;;;;14.93;14.03;;;19.90;95.10;;;;;;4953826;29;20465;-72
2021/05/28 08:50:35;;;;;;;16.00;15.10;;;20.00;94.70;;;;;;4953562;29;20515;-72
2021/05/28 08:53:01;;;;;;;16.33;15.33;;;20.50;93.90;;;;;;4953489;29;20492;-71
2021/05/28 08:55:27;;;;;;;15.90;14.90;;;20.80;93.10;;;;;;4953252;28;20799;-71
2021/05/28 08:57:54;;;;;;;14.83;13.93;;;21.10;92.70;;;;;;4953738;28;20839;-71
2021/05/28 09:00:22;;;;;;;15.40;14.50;;;21.50;92.00;;;;;;4953358;29;20457;-71
2021/05/28 09:02:50;;;;;;;15.63;14.87;;;21.80;90.30;;;;;;4953234;28;20484;-71
2021/05/28 09:05:20;;;;;;;15.70;14.50;;;22.10;90.00;;;;;;4953252;29;20453;-72
2021/05/28 09:07:55;;;;;;;15.50;14.60;;;22.10;90.10;;;;;;4952970;29;20459;-71
2021/05/28 09:10:33;;;;;;;13.87;13.30;;;22.10;89.70;;;;;;4953309;28;20443;-72
2021/05/28 09:13:14;;;;;;;14.90;14.23;;;21.70;87.30;;;;;;4952573;29;20484;-71
2021/05/28 09:15:43;;;;;;;15.53;14.73;;;20.90;89.20;;;;;;4952506;29;20492;-72
2021/05/28 09:18:11;;;;;;;15.37;14.37;;;20.70;90.60;;;;;;4953025;29;20445;-71
2021/05/28 09:20:38;;;;;;;14.60;13.80;;;20.80;91.10;;;;;;4951209;28;20456;-72
2021/05/28 09:23:09;;;;;;;15.10;14.27;;;21.10;90.20;;;;;;4952931;29;20452;-71
2021/05/28 09:25:57;;;;;;;16.90;15.70;;;21.50;88.70;;;;;;4952864;29;20456;-71
2021/05/28 09:28:24;;;;;;;17.00;16.10;;;21.70;89.60;;;;;;4953052;29;20456;-72
2021/05/28 09:30:55;;;;;;;15.87;15.07;;;21.20;89.80;;;;;;4953080;29;20461;-71
2021/05/28 09:33:24;;;;;;;17.10;16.20;;;20.40;90.90;;;;;;4952931;29;21003;-71
2021/05/28 09:35:51;;;;;;;14.53;13.83;;;20.20;91.50;;;;;;4953197;28;20460;-70
2021/05/28 09:38:21;;;;;;;14.40;13.70;;;20.50;91.80;;;;;;4952695;29;20830;-71
2021/05/28 09:40:47;;;;;;;15.00;14.17;;;20.80;90.50;;;;;;4952662;29;20460;-72
2021/05/28 09:43:20;;;;;;;15.07;14.17;;;20.80;89.20;;;;;;4952869;28;20492;-72
2021/05/28 09:45:48;;;;;;;15.60;14.67;;;20.50;90.10;;;;;;4950949;28;20515;-71
2021/05/28 09:48:28;;;;;;;15.40;14.50;;;20.60;90.30;;;;;;4952831;29;20705;-72
2021/05/28 09:50:56;;;;;;;14.70;14.00;;;20.90;89.40;;;;;;4952845;29;20547;-72
2021/05/28 09:53:30;;;;;;;14.13;13.43;;;20.70;88.80;;;;;;4952998;29;20484;-71
2021/05/28 09:55:57;;;;;;;15.77;14.87;;;20.60;89.10;;;;;;4952957;29;20479;-72
2021/05/28 09:58:23;;;;;;;14.67;13.90;;;20.30;90.40;;;;;;4953005;29;20465;-71
2021/05/28 10:00:50;;;;;;;15.50;14.57;;;20.00;90.90;;;;;;4952302;29;20449;-70
2021/05/28 10:03:19;;;;;;;16.60;15.60;;;20.00;91.30;;;;;;4952400;28;21122;-71
2021/05/28 10:05:47;;;;;;;15.83;14.80;;;20.20;91.20;;;;;;4952496;28;20657;-71
2021/05/28 10:08:16;;;;;;;15.17;14.37;;;20.30;91.10;;;;;;4952460;29;20460;-71
2021/05/28 10:10:43;;;;;;;15.73;14.90;;;20.70;90.50;;;;;;4952458;29;20456;-71
2021/05/28 10:13:11;;;;;;;15.03;14.23;;;20.40;90.10;;;;;;4952109;28;20488;-71
2021/05/28 10:15:40;;;;;;;14.00;13.30;;;20.40;90.60;;;;;;4952405;29;20873;-70
2021/05/28 10:18:07;;;;;;;13.87;13.27;;;20.60;88.00;;;;;;4952521;29;20459;-70
2021/05/28 10:20:33;;;;;;;13.07;12.47;;;20.20;87.10;;;;;;4952353;28;20492;-71
2021/05/28 10:23:00;;;;;;;13.80;13.20;;;20.10;87.80;;;;;;4951776;28;20461;-70
2021/05/28 10:25:27;;;;;;;14.10;13.50;;;20.00;87.30;;;;;;4951909;29;20511;-70
2021/05/28 10:27:55;;;;;;;13.50;12.90;;;20.00;88.80;;;;;;4952444;29;20824;-70
2021/05/28 10:30:25;;;;;;;14.80;13.90;;;20.00;88.20;;;;;;4952487;29;20467;-70
2021/05/28 10:33:18;;;;;;;13.47;12.53;;;20.10;87.50;;;;;;4952185;28;20558;-70
2021/05/28 10:35:46;;;;;;;14.40;13.70;;;20.70;87.00;;;;;;4951948;29;20459;-70
2021/05/28 10:38:43;;;;;;;12.87;12.37;;;21.20;85.00;;;;;;4952375;28;20460;-70
2021/05/28 10:41:44;;;;;;;13.10;12.50;;;21.60;83.00;;;;;;4952092;29;20596;-70
2021/05/28 10:44:13;;;;;;;13.70;13.00;;;22.10;82.20;;;;;;4892689;29;21045;-71
2021/05/28 10:47:12;;;;;;;13.10;12.50;;;22.90;80.20;;;;;;4892270;29;20708;-70
2021/05/28 10:49:42;;;;;;;14.47;13.87;;;24.00;78.30;;;;;;4929086;28;20456;-71
2021/05/28 10:52:11;;;;;;;15.97;15.17;;;24.50;76.80;;;;;;4951870;29;21025;-71
2021/05/28 10:54:44;;;;;;;15.10;14.30;;;24.40;73.90;;;;;;4951796;29;20530;-71
2021/05/28 10:57:44;;;;;;;14.63;14.03;;;23.60;74.80;;;;;;4952000;29;20456;-70
2021/05/28 11:00:22;;;;;;;15.43;14.77;;;23.60;72.80;;;;;;4951628;29;20449;-70
2021/05/28 11:02:53;;;;;;;15.30;14.53;;;23.30;73.00;;;;;;4951976;28;20444;-70
2021/05/28 11:05:38;;;;;;;14.13;13.53;;;23.70;73.60;;;;;;4952022;29;20459;-70
2021/05/28 11:08:41;;;;;;;13.47;12.97;;;24.90;70.20;;;;;;4951905;28;20507;-71
2021/05/28 11:11:29;;;;;;;14.47;13.60;;;25.20;64.80;;;;;;4951868;29;20456;-71
2021/05/28 11:13:58;;;;;;;13.33;12.83;;;25.60;64.90;;;;;;4951507;28;20492;-71
2021/05/28 11:16:24;;;;;;;13.20;12.70;;;25.30;61.10;;;;;;4952051;28;20560;-71
2021/05/28 11:18:52;;;;;;;12.30;11.80;;;25.30;61.30;;;;;;4951900;28;20606;-71
2021/05/28 11:21:19;;;;;;;14.17;13.47;;;24.60;60.70;;;;;;4951807;29;20453;-71
2021/05/28 11:23:47;;;;;;;13.30;12.60;;;22.70;65.60;;;;;;4951564;29;20467;-70
2021/05/28 11:26:25;;;;;;;12.80;12.30;;;22.40;67.50;;;;;;4951638;29;20471;-70
2021/05/28 11:28:54;;;;;;;13.90;13.40;;;22.80;67.80;;;;;;4951857;29;20523;-71
2021/05/28 11:31:22;;;;;;;13.67;13.10;;;22.40;67.80;;;;;;4951663;28;20440;-70
2021/05/28 11:33:55;;;;;;;13.20;12.70;;;23.00;67.80;;;;;;4951451;28;20496;-70
2021/05/28 11:36:43;;;;;;;13.80;13.10;;;23.20;66.60;;;;;;4955360;29;20449;-70
2021/05/28 11:39:11;;;;;;;14.77;14.00;;;24.20;65.50;;;;;;4955662;29;20456;-71
2021/05/28 11:41:47;;;;;;;14.17;13.57;;;24.80;64.10;;;;;;4955260;29;20456;-71
2021/05/28 11:44:16;;;;;;;13.93;13.33;;;24.90;65.30;;;;;;4954779;29;20476;-71
2021/05/28 11:46:43;;;;;;;14.80;14.20;;;24.60;64.60;;;;;;4954741;28;20480;-71
2021/05/28 11:49:09;;;;;;;14.23;13.63;;;24.70;62.70;;;;;;4954810;29;20456;-70
2021/05/28 11:51:35;;;;;;;14.40;13.80;;;25.60;61.80;;;;;;4954995;29;20448;-71
2021/05/28 11:54:01;;;;;;;13.40;12.87;;;24.90;63.90;;;;;;4954886;28;20487;-71
2021/05/28 11:56:28;;;;;;;14.20;13.60;;;25.60;61.80;;;;;;4954693;28;20460;-72
2021/05/28 11:58:56;;;;;;;15.13;14.30;;;26.60;60.30;;;;;;4954706;28;20484;-71
2021/05/28 12:01:22;;;;;;;14.77;14.17;;;27.50;58.60;;;;;;4954836;29;20456;-71
2021/05/28 12:03:49;;;;;;;14.10;13.57;;;26.40;56.60;;;;;;4954520;29;20456;-71
2021/05/28 12:06:15;;;;;;;13.40;12.90;;;25.70;57.30;;;;;;4954357;28;20555;-71
2021/05/28 12:08:42;;;;;;;13.20;12.70;;;24.90;58.20;;;;;;4954057;29;20457;-71
2021/05/28 12:11:09;;;;;;;12.73;12.23;;;25.00;59.20;;;;;;4954555;29;20895;-72
2021/05/28 12:13:37;;;;;;;14.07;13.47;;;25.50;57.40;;;;;;4954285;29;20494;-71
2021/05/28 12:16:05;;;;;;;13.40;12.87;;;25.10;57.00;;;;;;4954239;29;20448;-72
2021/05/28 12:18:34;;;;;;;12.13;11.70;;;24.30;57.10;;;;;;4954228;28;20444;-71
2021/05/28 12:21:02;;;;;;;15.07;14.00;;;23.60;58.60;;;;;;4954203;29;20453;-71
2021/05/28 12:23:29;;;;;;;12.83;12.40;;;23.20;59.60;;;;;;4954398;29;20514;-71
2021/05/28 12:25:58;;;;;;;12.50;11.80;;;23.50;58.90;;;;;;4954296;28;20835;-71
2021/05/28 12:28:30;;;;;;;13.23;12.60;;;25.20;57.20;;;;;;4954307;29;20460;-72
2021/05/28 12:31:00;;;;;;;13.97;13.37;;;27.20;53.30;;;;;;4954278;29;20449;-72
2021/05/28 12:33:30;;;;;;;13.90;13.40;;;28.70;50.10;;;;;;4953995;29;20970;-72
2021/05/28 12:35:58;;;;;;;13.30;12.70;;;29.80;48.50;;;;;;4953962;28;20457;-72
2021/05/28 12:38:31;;;;;;;13.50;12.83;;;29.20;47.30;;;;;;4954305;29;20460;-72
2021/05/28 12:40:58;;;;;;;12.93;12.40;;;27.50;50.10;;;;;;4953892;29;20531;-72
2021/05/28 12:43:27;;;;;;;13.10;12.50;;;25.60;52.10;;;;;;4953834;29;20456;-71
2021/05/28 12:45:54;;;;;;;12.83;12.40;;;24.20;55.40;;;;;;4953708;28;20492;-70
2021/05/28 12:48:21;;;;;;;12.13;11.73;;;23.30;57.20;;;;;;4953704;29;20512;-70
2021/05/28 12:50:51;;;;;;;13.10;12.60;;;22.40;60.00;;;;;;4953491;29;20457;-70
2021/05/28 12:53:19;;;;;;;13.03;12.53;;;22.20;61.20;;;;;;4953657;29;20485;-71
2021/05/28 12:55:52;;;;;;;11.70;11.30;;;23.20;58.70;;;;;;4953624;29;20511;-71
2021/05/28 12:58:27;;;;;;;13.13;12.63;;;24.20;57.20;;;;;;4953645;28;20462;-70
2021/05/28 13:00:59;;;;;;;13.23;12.73;;;25.40;54.70;;;;;;4953513;28;20907;-70
2021/05/28 13:03:41;;;;;;;13.30;12.60;;;26.40;52.50;;;;;;4953486;28;20803;-70
2021/05/28 13:06:28;;;;;;;13.70;13.20;;;27.80;51.40;;;;;;4951842;28;20511;-71
2021/05/28 13:08:57;;;;;;;13.40;12.90;;;27.70;50.30;;;;;;4953866;29;20452;-70
2021/05/28 13:11:24;;;;;;;13.77;13.27;;;26.50;52.50;;;;;;4953346;28;20820;-70
2021/05/28 13:13:52;;;;;;;13.07;12.30;;;27.20;53.00;;;;;;4953128;29;20503;-70
2021/05/28 13:16:27;;;;;;;13.13;12.63;;;27.40;51.80;;;;;;4953178;29;20459;-71
2021/05/28 13:18:53;;;;;;;13.53;13.00;;;27.50;51.80;;;;;;4952987;29;20509;-70
2021/05/28 13:21:28;;;;;;;13.83;13.30;;;26.70;52.60;;;;;;4953129;29;20713;-70
2021/05/28 13:23:55;;;;;;;13.67;13.07;;;24.60;56.60;;;;;;4953062;29;20460;-70
2021/05/28 13:26:23;;;;;;;12.63;12.13;;;22.80;60.40;;;;;;4953139;29;20448;-71
2021/05/28 13:28:49;;;;;;;13.10;12.30;;;21.80;62.70;;;;;;4952751;29;20453;-71
2021/05/28 13:31:18;;;;;;;13.50;12.90;;;20.90;64.90;;;;;;4952563;29;20459;-70
2021/05/28 13:33:47;;;;;;;11.93;11.40;;;20.30;67.60;;;;;;4952684;28;20901;-70
2021/05/28 13:36:16;;;;;;;12.77;12.27;;;19.90;69.60;;;;;;4952401;29;20463;-70
2021/05/28 13:38:45;;;;;;;12.10;11.60;;;19.60;71.20;;;;;;4952671;29;20465;-70
2021/05/28 13:41:15;;;;;;;11.87;11.30;;;19.50;71.30;;;;;;4952655;29;20460;-70
2021/05/28 13:43:42;;;;;;;12.87;12.10;;;19.30;71.30;;;;;;4952613;29;20455;-70
2021/05/28 13:46:09;;;;;;;12.90;12.40;;;20.10;70.20;;;;;;4952501;29;20492;-70
2021/05/28 13:48:37;;;;;;;11.93;11.53;;;21.30;67.10;;;;;;4952803;29;20448;-70
2021/05/28 13:51:03;;;;;;;13.77;13.00;;;22.60;65.00;;;;;;4952672;28;20515;-70
2021/05/28 13:53:29;;;;;;;12.20;11.80;;;23.30;61.80;;;;;;4952556;29;20488;-70
2021/05/28 13:55:57;;;;;;;13.20;12.60;;;23.90;60.20;;;;;;4952569;28;20452;-69
2021/05/28 13:58:25;;;;;;;12.40;11.90;;;23.70;59.00;;;;;;4951664;28;20457;-70
2021/05/28 14:00:53;;;;;;;13.10;12.50;;;24.00;57.80;;;;;;4952729;29;20449;-70
2021/05/28 14:03:20;;;;;;;12.30;11.90;;;24.30;57.00;;;;;;4952625;28;20453;-70
2021/05/28 14:05:47;;;;;;;11.87;11.37;;;24.50;56.60;;;;;;4952263;28;20832;-71
2021/05/28 14:08:15;;;;;;;13.57;12.80;;;25.00;56.70;;;;;;4952105;29;20449;-71
2021/05/28 14:10:42;;;;;;;12.67;12.27;;;25.00;54.50;;;;;;4952149;29;20824;-70
2021/05/28 14:13:11;;;;;;;12.50;12.00;;;25.30;52.90;;;;;;4952739;29;20893;-71
2021/05/28 14:15:38;;;;;;;12.40;11.87;;;25.50;53.10;;;;;;4952449;29;20515;-71
2021/05/28 14:18:04;;;;;;;14.10;13.60;;;26.00;53.70;;;;;;4952181;28;20456;-71
2021/05/28 14:20:31;;;;;;;13.10;12.40;;;24.40;56.60;;;;;;4952122;29;20487;-71
2021/05/28 14:22:58;;;;;;;13.20;12.60;;;23.40;59.20;;;;;;4952000;29;20449;-71
2021/05/28 14:25:25;;;;;;;11.80;11.33;;;23.40;59.00;;;;;;4952456;29;20456;-71
2021/05/28 14:27:52;;;;;;;12.70;12.00;;;23.20;59.90;;;;;;4950489;28;20463;-71
2021/05/28 14:30:20;;;;;;;12.83;12.33;;;23.20;61.00;;;;;;4952236;29;20957;-71
2021/05/28 14:32:46;;;;;;;12.43;12.00;;;23.30;59.20;;;;;;4952188;29;20492;-71
2021/05/28 14:35:13;;;;;;;12.90;12.40;;;23.80;57.90;;;;;;4952596;29;20539;-71
2021/05/28 14:37:40;;;;;;;12.40;12.00;;;23.90;56.70;;;;;;4952509;29;20456;-72
2021/05/28 14:40:08;;;;;;;12.30;11.90;;;24.30;56.60;;;;;;4952304;29;20452;-71
2021/05/28 14:42:34;;;;;;;12.77;12.30;;;24.80;56.60;;;;;;4952060;28;20468;-71
2021/05/28 14:45:00;;;;;;;13.00;12.27;;;24.70;56.10;;;;;;4952162;29;20480;-71
2021/05/28 14:47:28;;;;;;;12.87;12.47;;;23.90;56.60;;;;;;4951844;28;20480;-71
2021/05/28 14:49:54;;;;;;;12.03;11.60;;;23.70;56.70;;;;;;4952244;29;20503;-71
2021/05/28 14:52:20;;;;;;;12.50;12.00;;;23.10;58.90;;;;;;4950448;28;20452;-71
2021/05/28 14:54:47;;;;;;;12.00;11.53;;;23.50;59.10;;;;;;4951721;29;20453;-71
2021/05/28 14:57:13;;;;;;;11.33;10.83;;;23.30;59.60;;;;;;4950371;28;20453;-71
2021/05/28 14:59:39;;;;;;;12.70;12.30;;;23.10;59.80;;;;;;4951967;29;20452;-71
2021/05/28 15:02:06;;;;;;;12.70;12.20;;;22.30;60.00;;;;;;4952082;28;20460;-71
2021/05/28 15:04:34;;;;;;;12.10;11.70;;;21.30;61.50;;;;;;4951667;28;20859;-71
2021/05/28 15:07:00;;;;;;;11.93;11.53;;;20.70;63.10;;;;;;4951964;28;20457;-71
2021/05/28 15:09:26;;;;;;;12.40;12.00;;;20.40;64.50;;;;;;4952757;28;20463;-71
2021/05/28 15:11:53;;;;;;;13.07;12.57;;;20.20;64.20;;;;;;4955805;28;20507;-71
2021/05/28 15:14:19;;;;;;;12.40;11.80;;;20.10;65.20;;;;;;4955670;29;20832;-71
2021/05/28 15:16:45;;;;;;;11.77;11.27;;;20.30;65.50;;;;;;4955778;29;21023;-70
2021/05/28 15:19:11;;;;;;;11.60;11.20;;;20.40;66.10;;;;;;4954901;29;20452;-71